EmailTwitter


Observations de surface / France / LFBO (07630)

Régions: Québec | Canada | États-Unis | Europe | France | UK | Ailleurs
Station
Affichage
Infos & localisation pour LFBO (07630) | Aide pour décoder les METARs

Observations prises le 2018-01-22 à 22H00 UTC à TOULOUSE/BLAGNAC, FR (LFBO)

Etat du ciel: partiellement nuageux.

Température: 11.0 Celsius

Point de rosée: 9.0 Celsius

Humidité relative: 87%

Facteur vent: 9.

Vents: Ouest-nord-ouest à 20 km/h ou 11 noeuds.

Pression au niveau moyen de la mer: 102.80 kilopascals.

Visibilité horizontale: 6.21 milles terrestres ou 9.94 kilomètres.

Hauteur du plafond: 1097 mètres ( 3600 pieds ).

Observation METAR:

LFBO 222200Z AUTO 29011KT 9999 FEW012 SCT025 BKN036 11/09 Q1028 TEMPO BKN010=